Time;durP1;ratioP1;P1;durP2;ratioP2;P2;SDS_P1;SDS_P2;PMS_P1;PMS_P2;Temp;Humidity;BMP_temperature;BMP_pressure;BME280_temperature;BME280_humidity;BME280_pressure;Samples;Min_cycle;Max_cycle;Signal;HPM_P1;HPM_P2
2023/11/05 00:02:56;;;;;;;17.15;13.10;;;;;;;;;;9951330;28;20043;-70
2023/11/05 00:07:48;;;;;;;23.92;20.25;;;;;;;;;;9952230;28;20043;-71
2023/11/05 00:12:39;;;;;;;21.05;17.35;;;;;;;;;;9952996;28;20121;-71
2023/11/05 00:17:33;;;;;;;17.63;13.68;;;;;;;;;;9951011;28;20100;-70
2023/11/05 00:22:25;;;;;;;15.88;14.35;;;;;;;;;;9953639;28;20579;-71
2023/11/05 00:27:17;;;;;;;14.57;13.07;;;;;;;;;;9953163;28;20046;-70
2023/11/05 00:32:11;;;;;;;13.63;12.30;;;;;;;;;;9949827;28;20039;-71
2023/11/05 00:37:03;;;;;;;11.38;8.65;;;;;;;;;;9952705;28;20047;-71
2023/11/05 00:41:55;;;;;;;10.40;9.40;;;;;;;;;;9951178;28;20118;-70
2023/11/05 00:46:47;;;;;;;13.77;11.55;;;;;;;;;;9951616;28;20042;-71
2023/11/05 00:51:38;;;;;;;12.00;10.80;;;;;;;;;;9947947;28;20051;-70
2023/11/05 00:56:30;;;;;;;13.15;11.88;;;;;;;;;;9950798;28;20082;-71
2023/11/05 01:01:22;;;;;;;15.38;13.05;;;;;;;;;;9950661;28;20074;-71
2023/11/05 01:06:14;;;;;;;13.00;11.65;;;;;;;;;;9952180;28;20050;-71
2023/11/05 01:11:06;;;;;;;10.68;9.63;;;;;;;;;;9951417;28;20054;-70
2023/11/05 01:15:58;;;;;;;10.10;7.30;;;;;;;;;;9952376;28;20105;-71
2023/11/05 01:20:50;;;;;;;8.30;7.40;;;;;;;;;;9949894;28;20454;-72
2023/11/05 01:25:42;;;;;;;39.95;11.95;;;;;;;;;;9950834;28;20046;-72
2023/11/05 01:30:34;;;;;;;8.50;7.90;;;;;;;;;;9949250;28;20122;-71
2023/11/05 01:35:26;;;;;;;37.90;14.93;;;;;;;;;;9948270;28;20122;-71
2023/11/05 01:40:18;;;;;;;12.05;6.13;;;;;;;;;;9947667;28;20081;-72
2023/11/05 01:45:10;;;;;;;48.53;20.38;;;;;;;;;;9948346;28;20042;-73
2023/11/05 01:50:02;;;;;;;4.35;3.95;;;;;;;;;;9933185;28;20046;-73
2023/11/05 01:54:55;;;;;;;20.02;17.98;;;;;;;;;;9920358;28;20121;-73
2023/11/05 01:59:47;;;;;;;183.18;54.30;;;;;;;;;;9941682;28;20121;-73
2023/11/05 02:04:39;;;;;;;3.63;3.33;;;;;;;;;;9948987;28;20062;-74
2023/11/05 02:09:31;;;;;;;2.58;2.38;;;;;;;;;;9947186;28;20039;-73
2023/11/05 02:14:23;;;;;;;3.13;2.83;;;;;;;;;;9946758;28;20061;-73
2023/11/05 02:19:15;;;;;;;8.23;6.65;;;;;;;;;;9947304;28;20043;-73
2023/11/05 02:24:07;;;;;;;2.33;2.20;;;;;;;;;;9948027;28;20070;-74
2023/11/05 02:28:59;;;;;;;2.10;2.00;;;;;;;;;;9949542;28;20122;-74
2023/11/05 02:33:51;;;;;;;2.20;1.92;;;;;;;;;;9949358;28;20042;-73
2023/11/05 02:38:43;;;;;;;1.33;1.30;;;;;;;;;;9943442;28;20462;-73
2023/11/05 02:43:34;;;;;;;1.30;1.10;;;;;;;;;;9949071;28;20127;-74
2023/11/05 02:48:26;;;;;;;1.23;1.13;;;;;;;;;;9947941;28;20050;-73
2023/11/05 02:53:18;;;;;;;1.20;1.10;;;;;;;;;;9939315;28;20046;-73
2023/11/05 02:58:14;;;;;;;1.38;1.30;;;;;;;;;;9951919;28;20043;-74
2023/11/05 03:03:06;;;;;;;1.50;1.40;;;;;;;;;;9955895;28;20042;-73
2023/11/05 03:07:58;;;;;;;1.38;1.38;;;;;;;;;;9954762;28;20462;-74
2023/11/05 03:12:50;;;;;;;20.13;2.25;;;;;;;;;;9956254;28;20042;-74
2023/11/05 03:17:41;;;;;;;2.67;2.47;;;;;;;;;;9955159;28;20458;-74
2023/11/05 03:22:34;;;;;;;2.10;2.00;;;;;;;;;;9955705;28;20035;-74
2023/11/05 03:27:26;;;;;;;3.60;3.30;;;;;;;;;;9937097;28;20598;-74
2023/11/05 03:32:18;;;;;;;8.02;6.50;;;;;;;;;;9954267;28;20167;-74
2023/11/05 03:37:10;;;;;;;4.65;4.22;;;;;;;;;;9955299;28;20045;-74
2023/11/05 03:42:02;;;;;;;4.28;3.88;;;;;;;;;;9953965;28;20049;-74
2023/11/05 03:46:56;;;;;;;4.55;4.15;;;;;;;;;;9952121;28;20453;-74
2023/11/05 03:51:48;;;;;;;4.60;4.20;;;;;;;;;;9954194;28;20094;-74
2023/11/05 03:56:40;;;;;;;4.72;4.32;;;;;;;;;;9952459;28;20138;-74
2023/11/05 04:01:32;;;;;;;5.78;5.28;;;;;;;;;;9950222;28;20051;-74
2023/11/05 04:06:24;;;;;;;4.43;4.03;;;;;;;;;;9951851;28;20050;-74
2023/11/05 04:11:16;;;;;;;4.57;4.18;;;;;;;;;;9953118;28;20038;-74
2023/11/05 04:16:08;;;;;;;4.95;4.53;;;;;;;;;;9952304;28;20055;-74
2023/11/05 04:21:00;;;;;;;5.40;4.90;;;;;;;;;;9953162;28;20093;-74
2023/11/05 04:25:51;;;;;;;9.23;8.23;;;;;;;;;;9952393;28;20050;-74
2023/11/05 04:30:43;;;;;;;8.68;7.78;;;;;;;;;;9948522;28;20429;-74
2023/11/05 04:35:35;;;;;;;9.02;8.18;;;;;;;;;;9953020;28;20087;-74
2023/11/05 04:40:27;;;;;;;7.20;6.38;;;;;;;;;;9952882;28;20060;-73
2023/11/05 04:45:20;;;;;;;4.40;4.00;;;;;;;;;;9952537;28;20042;-73
2023/11/05 04:50:12;;;;;;;4.65;4.22;;;;;;;;;;9951642;28;20382;-73
2023/11/05 04:55:05;;;;;;;4.43;4.05;;;;;;;;;;9951348;28;20488;-73
2023/11/05 04:59:58;;;;;;;5.57;5.07;;;;;;;;;;9949002;28;20057;-74
2023/11/05 05:04:51;;;;;;;5.95;5.35;;;;;;;;;;9949740;28;20047;-74
2023/11/05 05:09:43;;;;;;;5.43;4.80;;;;;;;;;;9949833;28;20473;-74
2023/11/05 05:14:35;;;;;;;6.50;5.90;;;;;;;;;;9949086;28;20137;-74
2023/11/05 05:19:27;;;;;;;10.07;6.28;;;;;;;;;;9949135;28;20078;-74
2023/11/05 05:24:19;;;;;;;6.10;5.50;;;;;;;;;;9949746;28;20039;-74
2023/11/05 05:29:10;;;;;;;5.03;4.53;;;;;;;;;;9950610;28;20051;-74
2023/11/05 05:34:02;;;;;;;4.40;4.00;;;;;;;;;;9950434;28;20046;-77
2023/11/05 05:38:54;;;;;;;5.63;5.13;;;;;;;;;;9951328;28;20105;-74
2023/11/05 05:43:46;;;;;;;4.32;3.92;;;;;;;;;;9949454;28;20129;-74
2023/11/05 05:48:38;;;;;;;4.10;3.50;;;;;;;;;;9949831;28;20497;-77
2023/11/05 05:53:30;;;;;;;5.72;3.42;;;;;;;;;;9948819;28;20050;-77
2023/11/05 05:58:22;;;;;;;4.38;3.97;;;;;;;;;;9950378;28;20453;-76
2023/11/05 06:03:14;;;;;;;4.40;3.58;;;;;;;;;;9949153;28;20480;-77
2023/11/05 06:08:06;;;;;;;6.40;5.60;;;;;;;;;;9943303;28;20097;-77
2023/11/05 06:12:57;;;;;;;6.78;5.47;;;;;;;;;;9937406;28;20042;-74
2023/11/05 06:17:50;;;;;;;6.03;5.43;;;;;;;;;;9933347;28;20050;-74
2023/11/05 06:22:42;;;;;;;6.38;5.72;;;;;;;;;;9936625;28;20047;-75
2023/11/05 06:27:34;;;;;;;6.82;6.18;;;;;;;;;;9938276;28;20054;-77
2023/11/05 06:32:26;;;;;;;6.90;6.30;;;;;;;;;;9985752;28;20038;-77
2023/11/05 06:37:18;;;;;;;7.43;6.70;;;;;;;;;;9993032;28;20108;-75
2023/11/05 06:42:10;;;;;;;7.47;6.72;;;;;;;;;;9987121;28;20046;-74
2023/11/05 06:47:02;;;;;;;13.20;8.70;;;;;;;;;;9967562;28;20062;-74
2023/11/05 06:51:53;;;;;;;10.43;9.35;;;;;;;;;;9961189;28;20422;-75
2023/11/05 06:56:45;;;;;;;8.38;7.57;;;;;;;;;;9961967;28;20047;-76
2023/11/05 07:01:37;;;;;;;8.15;7.45;;;;;;;;;;9969737;28;20114;-76
2023/11/05 07:06:30;;;;;;;7.43;6.72;;;;;;;;;;9987111;28;20042;-76
2023/11/05 07:11:22;;;;;;;6.30;5.45;;;;;;;;;;9988772;28;20046;-76
2023/11/05 07:16:14;;;;;;;7.03;6.43;;;;;;;;;;9992286;28;20149;-76
2023/11/05 07:21:11;;;;;;;6.25;5.65;;;;;;;;;;9991918;28;20078;-74
2023/11/05 07:26:03;;;;;;;6.45;5.82;;;;;;;;;;9992436;28;20070;-73
2023/11/05 07:30:54;;;;;;;6.13;5.55;;;;;;;;;;9986416;28;20046;-73
2023/11/05 07:35:46;;;;;;;5.38;4.85;;;;;;;;;;9991408;28;20400;-73
2023/11/05 07:40:39;;;;;;;5.53;4.55;;;;;;;;;;9991739;28;20046;-73
2023/11/05 07:45:31;;;;;;;3.65;3.35;;;;;;;;;;9989613;28;20076;-73
2023/11/05 07:50:25;;;;;;;4.80;4.40;;;;;;;;;;9983978;28;20054;-73
2023/11/05 07:55:17;;;;;;;5.30;4.60;;;;;;;;;;9983572;28;20387;-71
2023/11/05 08:00:17;;;;;;;4.35;3.95;;;;;;;;;;9981155;28;20058;-73
2023/11/05 08:05:10;;;;;;;4.07;3.78;;;;;;;;;;9990956;28;20093;-73
2023/11/05 08:10:06;;;;;;;3.47;3.22;;;;;;;;;;9984784;28;20093;-71
2023/11/05 08:14:58;;;;;;;3.50;3.20;;;;;;;;;;9979135;28;20055;-73
2023/11/05 08:19:50;;;;;;;4.28;3.03;;;;;;;;;;9977291;28;20454;-73
2023/11/05 08:24:43;;;;;;;3.60;3.30;;;;;;;;;;9984390;28;20053;-73
2023/11/05 08:29:36;;;;;;;3.95;3.65;;;;;;;;;;9971577;28;20050;-72
2023/11/05 08:34:28;;;;;;;4.07;3.78;;;;;;;;;;9965706;28;20065;-73
2023/11/05 08:39:20;;;;;;;5.50;4.78;;;;;;;;;;9974661;28;20046;-72
2023/11/05 08:44:12;;;;;;;6.53;5.15;;;;;;;;;;9982556;28;20089;-71
2023/11/05 08:49:04;;;;;;;3.63;3.33;;;;;;;;;;9987788;28;20057;-71
2023/11/05 08:53:56;;;;;;;5.60;5.10;;;;;;;;;;9980139;28;20048;-71
2023/11/05 08:58:49;;;;;;;5.45;4.95;;;;;;;;;;10041682;23;20050;-73
2023/11/05 09:03:41;;;;;;;6.60;6.00;;;;;;;;;;9979302;28;20123;-73
2023/11/05 09:08:34;;;;;;;6.43;4.57;;;;;;;;;;9996732;28;20049;-74
2023/11/05 09:13:27;;;;;;;5.15;4.75;;;;;;;;;;9988439;28;20042;-72
2023/11/05 09:18:19;;;;;;;4.35;4.03;;;;;;;;;;9980912;28;20093;-73
2023/11/05 09:23:11;;;;;;;4.85;4.45;;;;;;;;;;9970736;28;20350;-73
2023/11/05 09:28:03;;;;;;;5.82;5.32;;;;;;;;;;9984980;28;20049;-73
2023/11/05 09:32:55;;;;;;;5.47;4.97;;;;;;;;;;9979928;28;20049;-73
2023/11/05 09:37:46;;;;;;;5.05;4.65;;;;;;;;;;9986180;28;20050;-74
2023/11/05 09:42:58;;;;;;;5.68;5.18;;;;;;;;;;9952703;28;20089;-73
2023/11/05 09:47:51;;;;;;;5.53;5.03;;;;;;;;;;9979101;28;20050;-76
2023/11/05 09:52:43;;;;;;;5.60;5.10;;;;;;;;;;9984239;28;20417;-75
2023/11/05 09:57:36;;;;;;;5.30;4.90;;;;;;;;;;9975707;28;20050;-77
2023/11/05 10:02:57;;;;;;;5.60;5.10;;;;;;;;;;9973502;28;20465;-79
2023/11/05 10:07:50;;;;;;;6.32;5.75;;;;;;;;;;9974769;28;20488;-79
2023/11/05 10:12:42;;;;;;;5.95;5.28;;;;;;;;;;9970392;28;20054;-79
2023/11/05 10:17:35;;;;;;;6.10;5.50;;;;;;;;;;9971343;28;20101;-79
2023/11/05 10:22:28;;;;;;;6.57;5.97;;;;;;;;;;9970455;28;20594;-78
2023/11/05 10:27:28;;;;;;;7.40;6.70;;;;;;;;;;9960945;28;20054;-79
2023/11/05 10:32:22;;;;;;;7.05;6.45;;;;;;;;;;9967076;28;20085;-78
2023/11/05 10:37:14;;;;;;;8.07;7.38;;;;;;;;;;9962547;28;20042;-78
2023/11/05 10:42:12;;;;;;;7.90;7.20;;;;;;;;;;9982640;28;20046;-78
2023/11/05 10:47:04;;;;;;;8.70;7.80;;;;;;;;;;9975910;28;20062;-79
2023/11/05 10:51:56;;;;;;;7.78;6.97;;;;;;;;;;10001045;28;20146;-78
2023/11/05 10:56:49;;;;;;;8.48;7.68;;;;;;;;;;9985323;28;20354;-79
2023/11/05 11:01:41;;;;;;;8.52;7.72;;;;;;;;;;9965109;28;20093;-79
2023/11/05 11:06:33;;;;;;;7.55;6.85;;;;;;;;;;9977053;28;20085;-78
2023/11/05 11:11:25;;;;;;;7.78;6.45;;;;;;;;;;9964948;28;20034;-79
2023/11/05 11:16:23;;;;;;;11.60;7.30;;;;;;;;;;9950256;28;20039;-78
2023/11/05 11:21:16;;;;;;;4.97;4.50;;;;;;;;;;9955432;28;20051;-79
2023/11/05 11:26:26;;;;;;;4.32;3.40;;;;;;;;;;9959602;28;20066;-79
2023/11/05 11:31:19;;;;;;;8.63;5.60;;;;;;;;;;9952495;28;20054;-78
2023/11/05 11:36:11;;;;;;;7.15;5.47;;;;;;;;;;9952687;28;20053;-79
2023/11/05 11:41:03;;;;;;;4.75;4.25;;;;;;;;;;9952479;28;20051;-78
2023/11/05 11:45:55;;;;;;;4.78;4.32;;;;;;;;;;9954401;28;20051;-78
2023/11/05 11:51:01;;;;;;;7.90;5.80;;;;;;;;;;9958082;28;20162;-78
2023/11/05 11:55:53;;;;;;;6.10;4.40;;;;;;;;;;9953959;28;20371;-78
2023/11/05 12:00:45;;;;;;;7.30;5.32;;;;;;;;;;9976021;28;20096;-78
2023/11/05 12:05:40;;;;;;;5.28;4.82;;;;;;;;;;9970609;28;20443;-78
2023/11/05 12:10:32;;;;;;;5.20;3.60;;;;;;;;;;9964569;28;20047;-77
2023/11/05 12:15:24;;;;;;;8.25;4.30;;;;;;;;;;9951578;28;20058;-77
2023/11/05 12:20:16;;;;;;;5.10;3.53;;;;;;;;;;9952793;28;20047;-77
2023/11/05 12:25:10;;;;;;;2.95;2.53;;;;;;;;;;9952069;28;20074;-76
2023/11/05 12:30:06;;;;;;;3.83;2.65;;;;;;;;;;9953571;28;20528;-77
2023/11/05 12:34:58;;;;;;;2.85;2.10;;;;;;;;;;9971620;28;20042;-77
2023/11/05 12:39:50;;;;;;;10.00;3.45;;;;;;;;;;9956783;28;20380;-77
2023/11/05 12:44:42;;;;;;;6.90;2.50;;;;;;;;;;9962344;28;20047;-76
2023/11/05 12:49:34;;;;;;;5.63;2.80;;;;;;;;;;9965047;28;20394;-77
2023/11/05 12:54:26;;;;;;;8.57;3.47;;;;;;;;;;9975616;28;20078;-76
2023/11/05 12:59:18;;;;;;;4.10;3.00;;;;;;;;;;9956571;28;20047;-76
2023/11/05 13:04:12;;;;;;;7.45;2.97;;;;;;;;;;9953920;28;20039;-76
2023/11/05 13:09:04;;;;;;;7.32;2.17;;;;;;;;;;9956089;28;20164;-76
2023/11/05 13:13:55;;;;;;;8.10;2.97;;;;;;;;;;9957276;28;20142;-76
2023/11/05 13:18:47;;;;;;;56.83;18.52;;;;;;;;;;9952299;28;20042;-76
2023/11/05 13:23:39;;;;;;;1.85;1.27;;;;;;;;;;9953113;28;20443;-76
2023/11/05 13:28:31;;;;;;;5.88;2.35;;;;;;;;;;9968494;28;20069;-75
2023/11/05 13:33:23;;;;;;;3.95;1.73;;;;;;;;;;9952620;28;20043;-76
2023/11/05 13:38:15;;;;;;;3.90;1.27;;;;;;;;;;9980985;28;20469;-76
2023/11/05 13:43:07;;;;;;;7.80;1.90;;;;;;;;;;9953165;28;20481;-75
2023/11/05 13:47:59;;;;;;;5.55;2.17;;;;;;;;;;9961041;28;20389;-75
2023/11/05 13:52:51;;;;;;;3.88;1.90;;;;;;;;;;9968192;28;20137;-80
2023/11/05 13:57:43;;;;;;;4.95;1.60;;;;;;;;;;9943119;28;20476;-75
2023/11/05 14:02:35;;;;;;;3.35;1.65;;;;;;;;;;9969332;28;20445;-75
2023/11/05 14:07:28;;;;;;;2.97;1.50;;;;;;;;;;9970300;28;20081;-75
2023/11/05 14:12:22;;;;;;;3.25;1.83;;;;;;;;;;9964806;28;20054;-77
2023/11/05 14:17:15;;;;;;;5.55;1.65;;;;;;;;;;9971033;28;20046;-75
2023/11/05 14:22:07;;;;;;;4.32;1.63;;;;;;;;;;9983397;28;20051;-76
2023/11/05 14:27:01;;;;;;;6.05;1.70;;;;;;;;;;9970823;28;20462;-75
2023/11/05 14:31:56;;;;;;;4.85;1.95;;;;;;;;;;9951840;28;20125;-75
2023/11/05 14:36:48;;;;;;;5.70;1.65;;;;;;;;;;9948192;28;20042;-75
2023/11/05 14:41:40;;;;;;;7.25;2.20;;;;;;;;;;9946954;28;20186;-75
2023/11/05 14:46:33;;;;;;;6.38;2.08;;;;;;;;;;9948544;28;20046;-75
2023/11/05 14:51:25;;;;;;;14.88;9.45;;;;;;;;;;9947613;28;20043;-75
2023/11/05 14:56:19;;;;;;;9.95;3.35;;;;;;;;;;9954773;28;20449;-75
2023/11/05 15:01:15;;;;;;;5.03;2.17;;;;;;;;;;9957328;28;20073;-75
2023/11/05 15:06:09;;;;;;;10.10;4.57;;;;;;;;;;9970867;28;20465;-74
2023/11/05 15:11:01;;;;;;;10.02;3.92;;;;;;;;;;9957637;28;20458;-75
2023/11/05 15:15:53;;;;;;;9.27;1.60;;;;;;;;;;9954951;28;20043;-75
2023/11/05 15:20:46;;;;;;;7.80;2.10;;;;;;;;;;9954074;28;20054;-74
2023/11/05 15:25:38;;;;;;;2.97;1.80;;;;;;;;;;9962753;28;20038;-75
2023/11/05 15:30:30;;;;;;;4.50;2.50;;;;;;;;;;9990897;28;20045;-75
2023/11/05 15:35:24;;;;;;;5.13;1.40;;;;;;;;;;9991243;28;20164;-75
2023/11/05 15:40:16;;;;;;;3.80;2.80;;;;;;;;;;9990168;28;20140;-75
2023/11/05 15:45:11;;;;;;;5.75;2.28;;;;;;;;;;9990559;28;20050;-75
2023/11/05 15:50:03;;;;;;;7.05;1.60;;;;;;;;;;9990003;28;20101;-75
2023/11/05 15:54:55;;;;;;;6.55;1.63;;;;;;;;;;9989566;28;20073;-75
2023/11/05 15:59:47;;;;;;;3.58;3.25;;;;;;;;;;9989889;28;20043;-75
2023/11/05 16:04:39;;;;;;;5.93;2.65;;;;;;;;;;9983653;28;20046;-76
2023/11/05 16:09:31;;;;;;;5.35;2.40;;;;;;;;;;9981406;28;20366;-75
2023/11/05 16:14:23;;;;;;;5.18;2.20;;;;;;;;;;9982674;28;20042;-75
2023/11/05 16:19:15;;;;;;;228.20;80.30;;;;;;;;;;9979902;28;20050;-76
2023/11/05 16:24:11;;;;;;;11.88;2.72;;;;;;;;;;9978868;28;20045;-75
2023/11/05 16:29:03;;;;;;;9.80;3.42;;;;;;;;;;9977901;28;20073;-76
2023/11/05 16:33:58;;;;;;;7.30;3.03;;;;;;;;;;9981973;28;20049;-75
2023/11/05 16:38:50;;;;;;;9.73;4.88;;;;;;;;;;9985750;28;20619;-75
2023/11/05 16:43:42;;;;;;;8.32;5.55;;;;;;;;;;9976135;28;20077;-75
2023/11/05 16:48:34;;;;;;;9.55;4.25;;;;;;;;;;9961372;28;20393;-75
2023/11/05 16:53:26;;;;;;;7.05;2.45;;;;;;;;;;9974169;28;20473;-75
2023/11/05 16:58:18;;;;;;;10.40;3.58;;;;;;;;;;9981887;28;20470;-75
2023/11/05 17:03:10;;;;;;;7.35;3.78;;;;;;;;;;9958429;28;20429;-75
2023/11/05 17:08:02;;;;;;;9.35;4.35;;;;;;;;;;9976860;28;20046;-75
2023/11/05 17:12:54;;;;;;;9.27;3.63;;;;;;;;;;9971478;28;20089;-76
2023/11/05 17:17:46;;;;;;;7.90;3.78;;;;;;;;;;9965797;28;20046;-75
2023/11/05 17:22:38;;;;;;;9.45;3.22;;;;;;;;;;9980276;28;20054;-75
2023/11/05 17:27:31;;;;;;;9.85;4.97;;;;;;;;;;9962918;28;20125;-75
2023/11/05 17:32:23;;;;;;;13.32;4.97;;;;;;;;;;9978732;28;20258;-75
2023/11/05 17:37:15;;;;;;;12.18;6.38;;;;;;;;;;9971857;28;20050;-75
2023/11/05 17:42:07;;;;;;;10.88;3.90;;;;;;;;;;9957990;28;20109;-75
2023/11/05 17:46:59;;;;;;;5.85;3.95;;;;;;;;;;9961846;28;20062;-75
2023/11/05 17:51:51;;;;;;;10.10;4.72;;;;;;;;;;9969398;28;20347;-75
2023/11/05 17:56:43;;;;;;;7.63;5.22;;;;;;;;;;9971208;28;20050;-75
2023/11/05 18:01:35;;;;;;;12.27;5.00;;;;;;;;;;9968502;28;20181;-75
2023/11/05 18:06:27;;;;;;;12.88;4.50;;;;;;;;;;9972336;28;20125;-75
2023/11/05 18:11:19;;;;;;;7.57;4.80;;;;;;;;;;9967535;28;20047;-75
2023/11/05 18:16:13;;;;;;;13.02;6.00;;;;;;;;;;9971765;28;20105;-75
2023/11/05 18:21:04;;;;;;;8.90;4.78;;;;;;;;;;9969290;28;20458;-76
2023/11/05 18:25:56;;;;;;;7.35;4.75;;;;;;;;;;9968083;28;20172;-75
2023/11/05 18:30:48;;;;;;;9.13;4.82;;;;;;;;;;9964760;28;20067;-76
2023/11/05 18:35:40;;;;;;;9.70;5.80;;;;;;;;;;9981845;28;20074;-75
2023/11/05 18:40:32;;;;;;;7.35;5.43;;;;;;;;;;9982787;28;20042;-76
2023/11/05 18:45:24;;;;;;;7.90;5.10;;;;;;;;;;9981392;28;20054;-75
2023/11/05 18:50:16;;;;;;;6.75;5.05;;;;;;;;;;9979156;28;20039;-76
2023/11/05 18:55:10;;;;;;;8.68;5.57;;;;;;;;;;9969864;28;20047;-75
2023/11/05 19:00:03;;;;;;;10.40;5.65;;;;;;;;;;9984194;28;20074;-77
2023/11/05 19:04:55;;;;;;;7.22;4.85;;;;;;;;;;9983634;28;20384;-76
2023/11/05 19:09:47;;;;;;;16.30;12.32;;;;;;;;;;9983997;28;20072;-76
2023/11/05 19:14:42;;;;;;;12.90;7.68;;;;;;;;;;9984209;28;20053;-76
2023/11/05 19:19:35;;;;;;;28.60;22.67;;;;;;;;;;9983674;28;20133;-76
2023/11/05 19:24:27;;;;;;;15.48;12.23;;;;;;;;;;9982799;28;20042;-76
2023/11/05 19:29:19;;;;;;;6.25;5.65;;;;;;;;;;9984474;28;20050;-75
2023/11/05 19:34:11;;;;;;;17.02;12.73;;;;;;;;;;9982967;28;20109;-75
2023/11/05 19:39:04;;;;;;;20.23;15.38;;;;;;;;;;9985315;28;20054;-76
2023/11/05 19:43:57;;;;;;;21.50;15.05;;;;;;;;;;9990644;28;20049;-76
2023/11/05 19:48:49;;;;;;;14.70;11.35;;;;;;;;;;9990863;28;20056;-76
2023/11/05 19:53:42;;;;;;;32.35;22.08;;;;;;;;;;9989545;28;20385;-76
2023/11/05 19:58:33;;;;;;;11.75;8.45;;;;;;;;;;9990725;28;20054;-76
2023/11/05 20:03:26;;;;;;;16.45;10.80;;;;;;;;;;9989015;28;20132;-76
2023/11/05 20:08:18;;;;;;;17.35;12.93;;;;;;;;;;9990455;28;20046;-76
2023/11/05 20:13:09;;;;;;;8.50;6.22;;;;;;;;;;9988580;28;20180;-75
2023/11/05 20:18:01;;;;;;;51.97;35.63;;;;;;;;;;9986801;28;20440;-76
2023/11/05 20:22:54;;;;;;;19.65;11.52;;;;;;;;;;9979703;28;20125;-76
2023/11/05 20:27:46;;;;;;;11.52;6.53;;;;;;;;;;9988505;28;20108;-79
2023/11/05 20:32:38;;;;;;;7.88;4.60;;;;;;;;;;9988186;28;20046;-75
2023/11/05 20:37:35;;;;;;;6.60;5.85;;;;;;;;;;9989300;28;20038;-75
2023/11/05 20:42:27;;;;;;;10.60;5.85;;;;;;;;;;9987995;28;20050;-75
2023/11/05 20:47:19;;;;;;;8.85;4.22;;;;;;;;;;9987966;28;20667;-75
2023/11/05 20:52:11;;;;;;;30.33;5.15;;;;;;;;;;9988433;28;20041;-75
2023/11/05 20:57:04;;;;;;;6.60;3.85;;;;;;;;;;9988259;28;20081;-75
2023/11/05 21:01:58;;;;;;;12.43;4.35;;;;;;;;;;9982583;28;20050;-75
2023/11/05 21:06:50;;;;;;;11.15;8.23;;;;;;;;;;9986861;28;20512;-75
2023/11/05 21:11:42;;;;;;;9.20;5.18;;;;;;;;;;9985786;28;20091;-76
2023/11/05 21:16:34;;;;;;;8.75;4.45;;;;;;;;;;9985596;28;20051;-75
2023/11/05 21:21:26;;;;;;;6.32;4.07;;;;;;;;;;9983438;28;20047;-75
2023/11/05 21:26:18;;;;;;;5.88;3.05;;;;;;;;;;9982362;28;20046;-75
2023/11/05 21:31:11;;;;;;;8.38;5.55;;;;;;;;;;9983200;28;20046;-75
2023/11/05 21:36:04;;;;;;;10.77;6.70;;;;;;;;;;9986474;28;20101;-75
2023/11/05 21:40:56;;;;;;;5.18;3.22;;;;;;;;;;9986588;28;20398;-76
2023/11/05 21:45:48;;;;;;;4.80;3.30;;;;;;;;;;9986134;28;20055;-75
2023/11/05 21:50:50;;;;;;;10.85;4.65;;;;;;;;;;9974835;28;20047;-75
2023/11/05 21:55:42;;;;;;;5.15;3.75;;;;;;;;;;9985351;28;20042;-76
2023/11/05 22:00:33;;;;;;;6.60;4.20;;;;;;;;;;9985354;28;20047;-75
2023/11/05 22:05:25;;;;;;;5.65;4.07;;;;;;;;;;9984418;28;20130;-75
2023/11/05 22:10:17;;;;;;;4.38;3.13;;;;;;;;;;9986118;28;20109;-75
2023/11/05 22:15:09;;;;;;;8.68;3.83;;;;;;;;;;9986293;28;20141;-75
2023/11/05 22:20:04;;;;;;;4.70;2.92;;;;;;;;;;9984687;28;20409;-75
2023/11/05 22:24:57;;;;;;;7.75;5.22;;;;;;;;;;9984909;28;20038;-75
2023/11/05 22:29:48;;;;;;;6.25;4.40;;;;;;;;;;9985442;28;20126;-75
2023/11/05 22:34:40;;;;;;;6.60;3.72;;;;;;;;;;9984835;28;20198;-75
2023/11/05 22:39:32;;;;;;;5.47;3.33;;;;;;;;;;9984891;28;20073;-76
2023/11/05 22:44:24;;;;;;;10.02;5.65;;;;;;;;;;9985307;28;20505;-75
2023/11/05 22:49:16;;;;;;;11.60;4.00;;;;;;;;;;9985244;28;20536;-75
2023/11/05 22:54:15;;;;;;;7.82;3.97;;;;;;;;;;9985062;28;20381;-75
2023/11/05 22:59:07;;;;;;;5.40;3.60;;;;;;;;;;9985035;28;20074;-75
2023/11/05 23:04:00;;;;;;;6.38;4.72;;;;;;;;;;9984754;28;20173;-75
2023/11/05 23:08:52;;;;;;;8.27;3.88;;;;;;;;;;9984957;28;20050;-75
2023/11/05 23:13:43;;;;;;;18.27;5.00;;;;;;;;;;9985628;28;20136;-75
2023/11/05 23:18:36;;;;;;;9.82;5.95;;;;;;;;;;9992729;28;20125;-75
2023/11/05 23:23:28;;;;;;;10.38;5.50;;;;;;;;;;9991992;28;20058;-75
2023/11/05 23:28:20;;;;;;;7.85;5.07;;;;;;;;;;9990360;28;20389;-75
2023/11/05 23:33:12;;;;;;;3.90;3.05;;;;;;;;;;9991437;28;20043;-74
2023/11/05 23:38:04;;;;;;;3.63;2.72;;;;;;;;;;9991647;28;20093;-75
2023/11/05 23:42:57;;;;;;;5.43;3.08;;;;;;;;;;9991273;28;20047;-75
2023/11/05 23:47:49;;;;;;;7.88;3.13;;;;;;;;;;9991401;28;20038;-75
2023/11/05 23:52:41;;;;;;;7.50;3.70;;;;;;;;;;9989681;28;20495;-75
2023/11/05 23:57:33;;;;;;;6.30;3.08;;;;;;;;;;9959424;28;20058;-75
